Time;durP1;ratioP1;P1;durP2;ratioP2;P2;SDS_P1;SDS_P2;PMS_P1;PMS_P2;Temp;Humidity;BMP_temperature;BMP_pressure;BME280_temperature;BME280_humidity;BME280_pressure;Samples;Min_cycle;Max_cycle;Signal;HPM_P1;HPM_P2
2022/07/11 00:04:02;;;;;;;0.20;0.20;;;;;;;;;;15347324;19;20002;-66
2022/07/11 00:09:04;;;;;;;0.20;0.20;;;;;;;;;;15350069;19;20014;-66
2022/07/11 00:14:05;;;;;;;0.20;0.20;;;;;;;;;;15348169;19;20118;-66
2022/07/11 00:19:06;;;;;;;0.20;0.20;;;;;;;;;;15345501;19;20006;-66
2022/07/11 00:24:08;;;;;;;0.20;0.20;;;;;;;;;;15347001;19;20003;-66
2022/07/11 00:29:09;;;;;;;0.20;0.20;;;;;;;;;;15353971;19;20018;-66
2022/07/11 00:34:11;;;;;;;0.20;0.20;;;;;;;;;;15346183;19;20021;-66
2022/07/11 00:39:12;;;;;;;0.20;0.20;;;;;;;;;;15345238;19;20231;-66
2022/07/11 00:44:14;;;;;;;0.20;0.20;;;;;;;;;;15344848;19;20091;-66
2022/07/11 00:49:15;;;;;;;0.15;0.15;;;;;;;;;;15345040;19;20003;-66
2022/07/11 00:54:19;;;;;;;0.10;0.10;;;;;;;;;;15343916;19;20011;-66
2022/07/11 00:59:20;;;;;;;0.20;0.20;;;;;;;;;;15347186;19;20015;-66
2022/07/11 01:04:22;;;;;;;0.20;0.20;;;;;;;;;;15346357;19;20038;-65
2022/07/11 01:09:23;;;;;;;0.20;0.20;;;;;;;;;;15343237;19;20010;-65
2022/07/11 01:14:25;;;;;;;0.20;0.20;;;;;;;;;;15343648;19;20006;-65
2022/07/11 01:19:26;;;;;;;0.20;0.20;;;;;;;;;;15340711;19;20006;-65
2022/07/11 01:24:28;;;;;;;0.20;0.20;;;;;;;;;;15341306;19;20010;-65
2022/07/11 01:29:29;;;;;;;0.20;0.20;;;;;;;;;;15346468;19;20033;-65
2022/07/11 01:34:30;;;;;;;0.20;0.20;;;;;;;;;;15341820;19;20007;-65
2022/07/11 01:39:31;;;;;;;0.17;0.17;;;;;;;;;;15339539;19;20021;-65
2022/07/11 01:44:33;;;;;;;0.20;0.20;;;;;;;;;;15348077;19;20011;-65
2022/07/11 01:49:34;;;;;;;0.20;0.20;;;;;;;;;;15346727;19;20235;-65
2022/07/11 01:54:35;;;;;;;0.20;0.20;;;;;;;;;;15345130;19;20017;-65
2022/07/11 01:59:36;;;;;;;0.20;0.20;;;;;;;;;;15351012;19;20123;-65
2022/07/11 02:04:37;;;;;;;0.20;0.20;;;;;;;;;;15349267;19;20003;-65
2022/07/11 02:09:38;;;;;;;0.20;0.20;;;;;;;;;;15341568;19;20230;-65
2022/07/11 02:14:40;;;;;;;0.20;0.20;;;;;;;;;;15339176;19;20127;-65
2022/07/11 02:19:41;;;;;;;0.20;0.20;;;;;;;;;;15335946;19;20014;-65
2022/07/11 02:24:43;;;;;;;0.20;0.20;;;;;;;;;;15338190;19;19999;-66
2022/07/11 02:29:44;;;;;;;0.20;0.20;;;;;;;;;;15344919;19;20010;-66
2022/07/11 02:34:45;;;;;;;0.20;0.20;;;;;;;;;;15345342;19;20010;-65
2022/07/11 02:39:47;;;;;;;0.20;0.20;;;;;;;;;;15342901;19;20231;-65
2022/07/11 02:44:48;;;;;;;0.20;0.20;;;;;;;;;;15343532;19;20019;-66
2022/07/11 02:49:49;;;;;;;0.20;0.20;;;;;;;;;;15342839;19;20011;-65
2022/07/11 02:54:51;;;;;;;0.20;0.20;;;;;;;;;;15343340;19;20021;-65
2022/07/11 02:59:52;;;;;;;0.20;0.20;;;;;;;;;;15342199;19;20011;-65
2022/07/11 03:04:53;;;;;;;0.20;0.20;;;;;;;;;;15343735;19;20235;-65
2022/07/11 03:09:55;;;;;;;0.10;0.10;;;;;;;;;;15342051;19;20022;-65
2022/07/11 03:14:57;;;;;;;0.20;0.20;;;;;;;;;;15341128;19;20022;-65
2022/07/11 03:19:58;;;;;;;0.20;0.20;;;;;;;;;;15336828;19;20018;-65
2022/07/11 03:25:06;;;;;;;0.20;0.20;;;;;;;;;;15342443;19;20011;-65
2022/07/11 03:30:07;;;;;;;0.10;0.10;;;;;;;;;;15338501;19;20010;-65
2022/07/11 03:40:29;;;;;;;0.20;0.20;;;;;;;;;;15336274;19;20006;-65
2022/07/11 03:45:30;;;;;;;0.10;0.10;;;;;;;;;;15336465;19;20254;-65
2022/07/11 03:50:31;;;;;;;0.20;0.20;;;;;;;;;;15341041;19;20010;-66
2022/07/11 03:55:33;;;;;;;0.10;0.10;;;;;;;;;;15339196;19;20119;-66
2022/07/11 04:00:35;;;;;;;0.20;0.20;;;;;;;;;;15334658;19;20014;-66
2022/07/11 04:05:36;;;;;;;0.20;0.20;;;;;;;;;;15339568;19;20018;-66
2022/07/11 04:10:37;;;;;;;0.10;0.10;;;;;;;;;;15332839;19;20010;-67
2022/07/11 04:15:38;;;;;;;0.17;0.17;;;;;;;;;;15332340;19;20024;-67
2022/07/11 04:20:40;;;;;;;0.20;0.20;;;;;;;;;;15328296;19;20015;-67
2022/07/11 04:25:42;;;;;;;0.20;0.20;;;;;;;;;;15331228;19;20290;-67
2022/07/11 04:30:43;;;;;;;0.20;0.20;;;;;;;;;;15328235;19;20011;-66
2022/07/11 04:35:45;;;;;;;0.10;0.10;;;;;;;;;;15344001;19;20022;-67
2022/07/11 04:40:46;;;;;;;0.10;0.10;;;;;;;;;;15341411;19;20014;-66
2022/07/11 04:45:47;;;;;;;0.10;0.10;;;;;;;;;;15344137;19;20104;-67
2022/07/11 04:50:48;;;;;;;0.10;0.10;;;;;;;;;;15344824;19;20011;-67
2022/07/11 04:55:50;;;;;;;0.10;0.10;;;;;;;;;;15343557;19;20018;-67
2022/07/11 05:00:51;;;;;;;0.10;0.10;;;;;;;;;;15341496;19;20143;-67
2022/07/11 05:05:52;;;;;;;0.10;0.10;;;;;;;;;;15342658;19;20014;-67
2022/07/11 05:10:53;;;;;;;0.10;0.10;;;;;;;;;;15339350;19;20006;-67
2022/07/11 05:15:55;;;;;;;0.10;0.10;;;;;;;;;;15345087;19;20014;-67
2022/07/11 05:20:57;;;;;;;0.10;0.10;;;;;;;;;;15344863;19;20011;-66
2022/07/11 05:25:58;;;;;;;0.10;0.10;;;;;;;;;;15344457;19;20142;-66
2022/07/11 05:31:00;;;;;;;0.10;0.10;;;;;;;;;;15342131;19;20118;-66
2022/07/11 05:36:02;;;;;;;0.00;0.00;;;;;;;;;;15350365;19;20010;-67
2022/07/11 05:41:03;;;;;;;0.10;0.10;;;;;;;;;;15342719;19;20237;-66
2022/07/11 05:46:05;;;;;;;0.00;0.00;;;;;;;;;;15338053;19;20021;-66
2022/07/11 05:51:06;;;;;;;0.00;0.00;;;;;;;;;;15345986;19;20027;-67
2022/07/11 05:56:07;;;;;;;0.00;0.00;;;;;;;;;;15346218;19;20011;-67
2022/07/11 06:01:09;;;;;;;0.00;0.00;;;;;;;;;;15340050;19;20035;-67
2022/07/11 06:06:10;;;;;;;0.00;0.00;;;;;;;;;;15344658;19;20037;-65
2022/07/11 06:11:13;;;;;;;0.00;0.00;;;;;;;;;;15346044;19;20023;-67
2022/07/11 06:16:14;;;;;;;0.00;0.00;;;;;;;;;;15339126;19;20058;-65
2022/07/11 06:21:15;;;;;;;0.00;0.00;;;;;;;;;;15334704;19;20024;-66
2022/07/11 06:26:17;;;;;;;0.00;0.00;;;;;;;;;;15345181;19;20011;-66
2022/07/11 06:31:18;;;;;;;0.00;0.00;;;;;;;;;;15334811;19;20014;-67
2022/07/11 06:36:26;;;;;;;0.00;0.00;;;;;;;;;;15337305;19;20107;-66
2022/07/11 06:41:28;;;;;;;0.00;0.00;;;;;;;;;;15341576;19;20126;-65
2022/07/11 06:46:29;;;;;;;0.00;0.00;;;;;;;;;;15336954;19;20227;-65
2022/07/11 06:51:31;;;;;;;0.00;0.00;;;;;;;;;;15342082;19;20018;-65
2022/07/11 06:56:32;;;;;;;0.00;0.00;;;;;;;;;;15338299;19;20021;-65
2022/07/11 07:01:33;;;;;;;0.00;0.00;;;;;;;;;;15335624;19;20010;-67
2022/07/11 07:06:34;;;;;;;0.00;0.00;;;;;;;;;;15337910;19;20015;-66
2022/07/11 07:11:36;;;;;;;0.00;0.00;;;;;;;;;;15342769;19;20015;-66
2022/07/11 07:16:39;;;;;;;0.00;0.00;;;;;;;;;;15344183;19;20018;-68
2022/07/11 07:21:40;;;;;;;0.00;0.00;;;;;;;;;;15336546;19;20221;-65
2022/07/11 07:26:42;;;;;;;0.00;0.00;;;;;;;;;;15338071;19;20014;-67
2022/07/11 07:31:44;;;;;;;0.00;0.00;;;;;;;;;;15330953;19;20034;-66
2022/07/11 07:36:46;;;;;;;0.00;0.00;;;;;;;;;;15340268;19;20010;-68
2022/07/11 07:41:48;;;;;;;0.00;0.00;;;;;;;;;;15333722;19;20062;-65
2022/07/11 07:46:49;;;;;;;0.00;0.00;;;;;;;;;;15336399;19;20037;-66
2022/07/11 07:51:51;;;;;;;0.00;0.00;;;;;;;;;;15332984;19;20015;-65
2022/07/11 07:56:52;;;;;;;0.00;0.00;;;;;;;;;;15333915;19;20010;-66
2022/07/11 08:01:54;;;;;;;0.00;0.00;;;;;;;;;;15332124;19;20015;-66
2022/07/11 08:06:56;;;;;;;0.00;0.00;;;;;;;;;;15336184;19;20211;-66
2022/07/11 08:11:58;;;;;;;0.00;0.00;;;;;;;;;;15351143;19;20112;-67
2022/07/11 08:16:59;;;;;;;0.00;0.00;;;;;;;;;;15346375;19;20014;-67
2022/07/11 08:22:00;;;;;;;0.00;0.00;;;;;;;;;;15348895;19;20007;-64
2022/07/11 08:27:03;;;;;;;0.00;0.00;;;;;;;;;;15351877;19;20015;-67
2022/07/11 08:32:05;;;;;;;0.00;0.00;;;;;;;;;;15347038;19;20022;-68
2022/07/11 08:37:07;;;;;;;0.10;0.10;;;;;;;;;;15354007;19;20238;-66
2022/07/11 08:42:08;;;;;;;0.25;0.25;;;;;;;;;;15347992;19;20022;-67
2022/07/11 08:47:11;;;;;;;4.30;4.20;;;;;;;;;;15350984;19;20127;-67
2022/07/11 08:52:15;;;;;;;21.13;20.02;;;;;;;;;;15352223;19;20018;-67
2022/07/11 08:57:16;;;;;;;21.08;20.00;;;;;;;;;;15350209;19;20022;-65
2022/07/11 09:02:19;;;;;;;48.45;45.55;;;;;;;;;;15347713;19;20021;-66
2022/07/11 09:07:20;;;;;;;24.52;23.23;;;;;;;;;;15346155;19;20011;-69
2022/07/11 09:12:21;;;;;;;29.92;28.33;;;;;;;;;;15344168;19;20005;-66
2022/07/11 09:17:28;;;;;;;26.67;25.27;;;;;;;;;;15337737;19;20003;-66
2022/07/11 09:27:54;;;;;;;1.27;1.27;;;;;;;;;;15350082;19;20015;-67
2022/07/11 09:32:59;;;;;;;0.30;0.30;;;;;;;;;;15345879;19;20011;-65
2022/07/11 09:38:08;;;;;;;1.40;1.40;;;;;;;;;;15342936;19;20014;-68
2022/07/11 09:43:10;;;;;;;0.57;0.57;;;;;;;;;;15342084;19;20003;-67
2022/07/11 09:48:13;;;;;;;0.10;0.10;;;;;;;;;;15345091;19;20015;-66
2022/07/11 09:53:14;;;;;;;0.00;0.00;;;;;;;;;;15340281;19;20007;-67
2022/07/11 09:58:17;;;;;;;0.00;0.00;;;;;;;;;;15346270;19;20126;-66
2022/07/11 10:03:22;;;;;;;0.00;0.00;;;;;;;;;;15340444;19;20013;-66
2022/07/11 10:08:23;;;;;;;0.00;0.00;;;;;;;;;;15339490;19;20029;-66
2022/07/11 10:13:24;;;;;;;0.00;0.00;;;;;;;;;;15346550;19;20018;-66
2022/07/11 10:18:35;;;;;;;;;;;;;;;;;;15344987;19;20045;-68
2022/07/11 10:23:54;;;;;;;0.00;0.00;;;;;;;;;;15342972;19;19919;-67
2022/07/11 10:29:03;;;;;;;0.00;0.00;;;;;;;;;;15341701;19;20148;-65
2022/07/11 10:34:06;;;;;;;0.00;0.00;;;;;;;;;;15339477;19;20094;-66
2022/07/11 10:39:25;;;;;;;0.00;0.00;;;;;;;;;;15344334;19;20011;-69
2022/07/11 10:44:28;;;;;;;0.00;0.00;;;;;;;;;;15337338;19;20006;-67
2022/07/11 10:49:43;;;;;;;0.00;0.00;;;;;;;;;;15344448;19;20014;-65
2022/07/11 10:54:44;;;;;;;0.00;0.00;;;;;;;;;;15341056;19;20011;-67
2022/07/11 10:59:59;;;;;;;0.00;0.00;;;;;;;;;;15339071;19;20014;-66
2022/07/11 11:05:01;;;;;;;0.00;0.00;;;;;;;;;;15344067;19;20007;-66
2022/07/11 11:10:18;;;;;;;0.00;0.00;;;;;;;;;;15335063;19;20219;-66
2022/07/11 11:15:46;;;;;;;0.00;0.00;;;;;;;;;;15344347;19;20089;-66
2022/07/11 11:21:07;;;;;;;0.00;0.00;;;;;;;;;;15341908;19;20020;-67
2022/07/11 11:26:12;;;;;;;0.00;0.00;;;;;;;;;;15340101;19;20056;-66
2022/07/11 11:31:18;;;;;;;0.00;0.00;;;;;;;;;;15333272;19;20164;-65
2022/07/11 11:36:22;;;;;;;0.00;0.00;;;;;;;;;;15339621;19;20010;-67
2022/07/11 11:41:25;;;;;;;0.00;0.00;;;;;;;;;;15337818;19;20119;-67
2022/07/11 11:46:29;;;;;;;0.00;0.00;;;;;;;;;;15357909;19;20007;-65
2022/07/11 11:51:32;;;;;;;0.00;0.00;;;;;;;;;;15354529;19;20051;-67
2022/07/11 11:56:34;;;;;;;;;;;;;;;;;;15355080;19;20015;-67
2022/07/11 12:01:37;;;;;;;0.00;0.00;;;;;;;;;;15351039;19;19923;-67
2022/07/11 12:06:41;;;;;;;0.00;0.00;;;;;;;;;;15356154;19;20015;-66
2022/07/11 12:11:45;;;;;;;0.00;0.00;;;;;;;;;;15355476;19;20021;-67
2022/07/11 12:16:47;;;;;;;0.00;0.00;;;;;;;;;;15353851;19;20031;-66
2022/07/11 12:21:50;;;;;;;0.00;0.00;;;;;;;;;;15349682;19;20036;-65
2022/07/11 12:26:51;;;;;;;0.00;0.00;;;;;;;;;;15353647;19;20156;-67
2022/07/11 12:31:54;;;;;;;0.00;0.00;;;;;;;;;;15347267;19;20044;-65
2022/07/11 12:37:10;;;;;;;0.00;0.00;;;;;;;;;;15349673;19;20010;-65
2022/07/11 12:42:26;;;;;;;0.00;0.00;;;;;;;;;;15345161;19;20278;-66
2022/07/11 12:47:28;;;;;;;0.00;0.00;;;;;;;;;;15345868;19;20155;-66
2022/07/11 12:52:36;;;;;;;;;;;;;;;;;;15344927;19;20013;-67
2022/07/11 12:57:41;;;;;;;0.00;0.00;;;;;;;;;;15352583;19;19930;-67
2022/07/11 13:02:52;;;;;;;0.00;0.00;;;;;;;;;;15342682;19;20354;-65
2022/07/11 13:13:15;;;;;;;0.00;0.00;;;;;;;;;;15348766;19;20126;-66
2022/07/11 13:18:16;;;;;;;0.00;0.00;;;;;;;;;;15344613;19;20127;-67
2022/07/11 13:23:18;;;;;;;;;;;;;;;;;;15354969;19;20010;-70
2022/07/11 13:28:19;;;;;;;0.00;0.00;;;;;;;;;;15351133;19;19966;-68
2022/07/11 13:33:21;;;;;;;0.00;0.00;;;;;;;;;;15340088;19;20025;-71
2022/07/11 13:38:23;;;;;;;0.00;0.00;;;;;;;;;;15349780;19;20383;-67
2022/07/11 13:43:24;;;;;;;0.00;0.00;;;;;;;;;;15341089;19;19998;-69
2022/07/11 13:48:25;;;;;;;0.00;0.00;;;;;;;;;;15345596;19;20010;-69
2022/07/11 13:53:26;;;;;;;0.00;0.00;;;;;;;;;;15349811;19;20007;-68
2022/07/11 13:58:29;;;;;;;0.00;0.00;;;;;;;;;;15346660;19;20017;-68
2022/07/11 14:03:30;;;;;;;0.00;0.00;;;;;;;;;;15346670;19;20017;-68
2022/07/11 14:08:32;;;;;;;0.00;0.00;;;;;;;;;;15341804;19;20010;-68
2022/07/11 14:13:34;;;;;;;0.00;0.00;;;;;;;;;;15348089;19;20014;-66
2022/07/11 14:18:35;;;;;;;0.00;0.00;;;;;;;;;;15337881;19;20234;-67
2022/07/11 14:23:36;;;;;;;0.00;0.00;;;;;;;;;;15347865;19;20011;-67
2022/07/11 14:28:38;;;;;;;0.00;0.00;;;;;;;;;;15346598;19;20006;-68
2022/07/11 14:33:39;;;;;;;0.00;0.00;;;;;;;;;;15339166;19;20003;-68
2022/07/11 14:38:41;;;;;;;0.00;0.00;;;;;;;;;;15343539;19;20026;-67
2022/07/11 14:43:43;;;;;;;0.00;0.00;;;;;;;;;;15345846;19;20015;-68
2022/07/11 14:48:46;;;;;;;0.00;0.00;;;;;;;;;;15346727;19;20009;-66
2022/07/11 14:53:47;;;;;;;0.00;0.00;;;;;;;;;;15340609;19;20018;-68
2022/07/11 14:58:48;;;;;;;0.00;0.00;;;;;;;;;;15336687;19;20041;-66
2022/07/11 15:03:51;;;;;;;0.00;0.00;;;;;;;;;;15344187;19;20018;-75
2022/07/11 15:14:14;;;;;;;0.00;0.00;;;;;;;;;;15342173;19;20006;-68
2022/07/11 15:19:16;;;;;;;;;;;;;;;;;;15341382;19;20230;-69
2022/07/11 15:24:17;;;;;;;0.00;0.00;;;;;;;;;;15334375;19;19915;-69
2022/07/11 15:29:18;;;;;;;0.00;0.00;;;;;;;;;;15339860;19;20131;-65
2022/07/11 15:34:20;;;;;;;0.00;0.00;;;;;;;;;;15342746;19;20006;-69
2022/07/11 15:39:21;;;;;;;0.00;0.00;;;;;;;;;;15333150;19;20440;-66
2022/07/11 15:44:22;;;;;;;0.00;0.00;;;;;;;;;;15338945;19;20015;-67
2022/07/11 15:49:24;;;;;;;0.00;0.00;;;;;;;;;;15341808;19;20074;-67
2022/07/11 15:54:25;;;;;;;0.00;0.00;;;;;;;;;;15340702;19;20018;-69
2022/07/11 15:59:27;;;;;;;0.00;0.00;;;;;;;;;;15338814;19;20027;-68
2022/07/11 16:04:28;;;;;;;0.00;0.00;;;;;;;;;;15338884;19;20019;-69
2022/07/11 16:09:29;;;;;;;0.00;0.00;;;;;;;;;;15340850;19;20018;-65
2022/07/11 16:14:31;;;;;;;0.00;0.00;;;;;;;;;;15338461;19;20061;-65
2022/07/11 16:19:33;;;;;;;0.00;0.00;;;;;;;;;;15338126;19;20022;-67
2022/07/11 16:24:35;;;;;;;0.00;0.00;;;;;;;;;;15338411;19;20006;-69
2022/07/11 16:29:36;;;;;;;0.00;0.00;;;;;;;;;;15344283;19;20011;-67
2022/07/11 16:34:38;;;;;;;0.00;0.00;;;;;;;;;;15353374;19;20018;-67
2022/07/11 16:45:01;;;;;;;0.00;0.00;;;;;;;;;;15351626;19;20019;-67
2022/07/11 16:50:02;;;;;;;0.00;0.00;;;;;;;;;;15353488;19;20040;-66
2022/07/11 16:55:04;;;;;;;0.00;0.00;;;;;;;;;;15350848;19;20124;-67
2022/07/11 17:00:07;;;;;;;0.00;0.00;;;;;;;;;;15351222;19;20011;-68
2022/07/11 17:05:08;;;;;;;0.00;0.00;;;;;;;;;;15354106;19;20011;-68
2022/07/11 17:10:09;;;;;;;0.00;0.00;;;;;;;;;;15351193;19;20018;-67
2022/07/11 17:15:11;;;;;;;0.00;0.00;;;;;;;;;;15350793;19;20127;-66
2022/07/11 17:20:12;;;;;;;0.00;0.00;;;;;;;;;;15348099;19;20157;-69
2022/07/11 17:25:13;;;;;;;0.00;0.00;;;;;;;;;;15351028;19;20029;-70
2022/07/11 17:30:15;;;;;;;0.00;0.00;;;;;;;;;;15347477;19;20007;-68
2022/07/11 17:35:18;;;;;;;0.00;0.00;;;;;;;;;;15350479;19;20010;-68
2022/07/11 17:40:20;;;;;;;0.00;0.00;;;;;;;;;;15346644;19;20010;-69
2022/07/11 17:45:21;;;;;;;0.00;0.00;;;;;;;;;;15345946;19;20070;-69
2022/07/11 17:50:24;;;;;;;0.00;0.00;;;;;;;;;;15352397;19;20003;-69
2022/07/11 17:55:25;;;;;;;0.00;0.00;;;;;;;;;;15349716;19;20010;-69
2022/07/11 18:00:26;;;;;;;0.00;0.00;;;;;;;;;;15347528;19;20019;-68
2022/07/11 18:05:28;;;;;;;0.00;0.00;;;;;;;;;;15349739;19;20010;-70
2022/07/11 18:10:29;;;;;;;0.00;0.00;;;;;;;;;;15346750;19;20014;-68
2022/07/11 18:15:30;;;;;;;0.00;0.00;;;;;;;;;;15346562;19;20040;-69
2022/07/11 18:20:32;;;;;;;0.00;0.00;;;;;;;;;;15344553;19;20010;-68
2022/07/11 18:25:33;;;;;;;0.00;0.00;;;;;;;;;;15344964;19;20033;-68
2022/07/11 18:30:35;;;;;;;0.00;0.00;;;;;;;;;;15340637;19;20130;-68
2022/07/11 18:35:36;;;;;;;0.00;0.00;;;;;;;;;;15343628;19;20217;-69
2022/07/11 18:45:58;;;;;;;0.00;0.00;;;;;;;;;;15348120;19;20052;-71
2022/07/11 18:50:59;;;;;;;0.10;0.10;;;;;;;;;;15347986;19;20010;-68
2022/07/11 18:56:01;;;;;;;0.10;0.10;;;;;;;;;;15348156;19;20007;-71
2022/07/11 19:01:02;;;;;;;0.00;0.00;;;;;;;;;;15341546;19;20058;-68
2022/07/11 19:06:03;;;;;;;0.10;0.10;;;;;;;;;;15348239;19;20037;-67
2022/07/11 19:11:05;;;;;;;0.10;0.10;;;;;;;;;;15341971;19;20007;-69
2022/07/11 19:16:10;;;;;;;0.10;0.10;;;;;;;;;;15341021;19;20019;-70
2022/07/11 19:21:11;;;;;;;0.10;0.10;;;;;;;;;;15343435;19;20052;-70
2022/07/11 19:26:13;;;;;;;0.10;0.10;;;;;;;;;;15338004;19;20018;-69
2022/07/11 19:31:16;;;;;;;0.10;0.10;;;;;;;;;;15337225;19;20033;-68
2022/07/11 19:36:18;;;;;;;0.10;0.10;;;;;;;;;;15337813;19;20034;-67
2022/07/11 19:41:19;;;;;;;0.10;0.10;;;;;;;;;;15333354;19;20089;-70
2022/07/11 19:46:20;;;;;;;0.10;0.10;;;;;;;;;;15341711;19;20223;-66
2022/07/11 19:51:22;;;;;;;0.10;0.10;;;;;;;;;;15342044;19;20021;-67
2022/07/11 20:01:45;;;;;;;0.10;0.10;;;;;;;;;;15336675;19;20010;-66
2022/07/11 20:06:46;;;;;;;0.10;0.10;;;;;;;;;;15350751;19;20007;-67
2022/07/11 20:11:48;;;;;;;0.10;0.10;;;;;;;;;;15351350;19;20034;-67
2022/07/11 20:16:49;;;;;;;0.10;0.10;;;;;;;;;;15354463;19;20122;-67
2022/07/11 20:21:51;;;;;;;0.10;0.10;;;;;;;;;;15349065;19;20225;-68
2022/07/11 20:26:53;;;;;;;0.10;0.10;;;;;;;;;;15354604;19;20010;-69
2022/07/11 20:31:54;;;;;;;0.10;0.10;;;;;;;;;;15344642;19;20018;-67
2022/07/11 20:36:58;;;;;;;0.10;0.10;;;;;;;;;;15345828;19;20156;-69
2022/07/11 20:42:00;;;;;;;0.10;0.10;;;;;;;;;;15350435;19;20074;-67
2022/07/11 20:47:01;;;;;;;0.10;0.10;;;;;;;;;;15353839;19;20127;-66
2022/07/11 20:52:03;;;;;;;0.10;0.10;;;;;;;;;;15348009;19;20014;-67
2022/07/11 20:57:04;;;;;;;0.10;0.10;;;;;;;;;;15344922;19;20003;-67
2022/07/11 21:02:06;;;;;;;0.10;0.10;;;;;;;;;;15349413;19;20010;-66
2022/07/11 21:07:07;;;;;;;0.10;0.10;;;;;;;;;;15350109;19;20021;-65
2022/07/11 21:12:09;;;;;;;0.10;0.10;;;;;;;;;;15344260;19;20017;-67
2022/07/11 21:17:10;;;;;;;0.10;0.10;;;;;;;;;;15349534;19;20029;-69
2022/07/11 21:22:11;;;;;;;0.13;0.13;;;;;;;;;;15339663;19;20379;-67
2022/07/11 21:27:13;;;;;;;0.17;0.17;;;;;;;;;;15342612;19;20021;-67
2022/07/11 21:32:15;;;;;;;0.10;0.10;;;;;;;;;;15348358;19;20014;-65
2022/07/11 21:37:16;;;;;;;0.10;0.10;;;;;;;;;;15345768;19;20241;-66
2022/07/11 21:42:17;;;;;;;0.10;0.10;;;;;;;;;;15341894;19;20019;-68
2022/07/11 21:47:18;;;;;;;0.10;0.10;;;;;;;;;;15345786;19;20010;-67
2022/07/11 21:52:20;;;;;;;0.10;0.10;;;;;;;;;;15345777;19;20034;-67
2022/07/11 21:57:21;;;;;;;0.10;0.10;;;;;;;;;;15343858;19;20014;-66
2022/07/11 22:02:22;;;;;;;0.10;0.10;;;;;;;;;;15344810;19;20026;-66
2022/07/11 22:07:23;;;;;;;0.10;0.10;;;;;;;;;;15344368;19;20011;-67
2022/07/11 22:12:25;;;;;;;0.10;0.10;;;;;;;;;;15343480;19;20014;-67
2022/07/11 22:17:27;;;;;;;0.10;0.10;;;;;;;;;;15340539;19;20026;-67
2022/07/11 22:22:28;;;;;;;0.20;0.20;;;;;;;;;;15336269;19;20032;-64
2022/07/11 22:27:29;;;;;;;0.10;0.10;;;;;;;;;;15336922;19;20014;-67
2022/07/11 22:32:31;;;;;;;0.10;0.10;;;;;;;;;;15335032;19;20034;-67
2022/07/11 22:37:32;;;;;;;0.10;0.10;;;;;;;;;;15339444;19;20013;-67
2022/07/11 22:43:09;;;;;;;0.20;0.20;;;;;;;;;;15335736;19;20026;-67
2022/07/11 22:47:54;;;;;;;0.10;0.10;;;;;;;;;;15339963;19;20017;-68
2022/07/11 22:52:55;;;;;;;0.10;0.10;;;;;;;;;;15337969;19;20010;-66
2022/07/11 22:57:57;;;;;;;0.20;0.20;;;;;;;;;;15336355;19;20007;-68
2022/07/11 23:02:58;;;;;;;0.10;0.10;;;;;;;;;;15342069;19;20111;-66
2022/07/11 23:08:00;;;;;;;0.13;0.13;;;;;;;;;;15341744;19;20219;-68
2022/07/11 23:13:02;;;;;;;0.15;0.15;;;;;;;;;;15340900;19;20111;-66
2022/07/11 23:18:05;;;;;;;0.10;0.10;;;;;;;;;;15340869;19;20011;-67
2022/07/11 23:23:06;;;;;;;0.20;0.20;;;;;;;;;;15338091;19;20007;-66
2022/07/11 23:28:08;;;;;;;0.20;0.20;;;;;;;;;;15337127;19;20247;-67
2022/07/11 23:33:10;;;;;;;0.15;0.15;;;;;;;;;;15330992;19;20007;-67
2022/07/11 23:38:11;;;;;;;0.20;0.20;;;;;;;;;;15349836;19;20037;-67
2022/07/11 23:43:12;;;;;;;0.20;0.20;;;;;;;;;;15348192;19;20011;-66
2022/07/11 23:48:13;;;;;;;0.20;0.20;;;;;;;;;;15351273;19;20014;-67
2022/07/11 23:53:14;;;;;;;0.20;0.20;;;;;;;;;;15350024;19;20040;-67
2022/07/11 23:58:15;;;;;;;0.17;0.17;;;;;;;;;;15355215;19;20007;-66
